Back to top

Buffalo, WY weather

Johnson County Airport, Buffalo, WY: 7/22/2019 13:53
Visibility10 statute milesclear sky
View 7-Day Forecast
Area Summary
Sky/CloudsSky Clear
Weather [last 24 hours]None
Pressure30.28 in.Hg (1026 hPa)
Dew Point57.9 °F (14.4 °C)
Relative Humidity42.7 %
Reading TimePrecipitation
6-hr ending 7/22@11:53Indeterminate
Temperature82.9 °F (28.3 °C)red thermometer
Reading TimeMinimum to Maximum Temperature
6-hr ending 7/22@05:5357 °F to 64 °F (13.9 °C to 17.8 °C)
6-hr ending 7/21@23:5362.1 °F to 73 °F (16.7 °C to 22.8 °C)
6-hr ending 7/21@17:5366.9 °F to 73 °F (19.4 °C to 22.8 °C)
24-hr ending 7/22@00:5355.9 °F to 73 °F (13.3 °C to 22.8 °C)
Wind12.7 MPH (11 KT) gusting to 20.7 MPH (18 KT)green arrow pointing 135 degrees
Wind FromSoutheast (140 Degrees)
Twilight Begins05:08Sunshine Yesterday
Sunrise05:42N/A
Sunset20:44
Twilight Ends21:18
METARKBYG 221953Z AUTO 14011G18KT 10SM CLR 28/14 A3028 RMK AO2 SLP194 T02830144
Tags: